sensor_id;sensor_type;location;lat;lon;timestamp;P1;durP1;ratioP1;P2;durP2;ratioP2
66575;SDS011;53428;47.686;16.584;2022-09-29T00:02:53;1.10;;;1.00;;
66575;SDS011;53428;47.686;16.584;2022-09-29T00:07:52;1.67;;;1.33;;
66575;SDS011;53428;47.686;16.584;2022-09-29T00:12:52;1.20;;;0.93;;
66575;SDS011;53428;47.686;16.584;2022-09-29T00:17:51;1.88;;;1.42;;
66575;SDS011;53428;47.686;16.584;2022-09-29T00:22:51;0.98;;;0.85;;
66575;SDS011;53428;47.686;16.584;2022-09-29T00:27:50;2.28;;;1.10;;
66575;SDS011;53428;47.686;16.584;2022-09-29T00:32:50;2.25;;;1.27;;
66575;SDS011;53428;47.686;16.584;2022-09-29T00:37:49;1.08;;;0.98;;
66575;SDS011;53428;47.686;16.584;2022-09-29T00:42:48;2.25;;;0.88;;
66575;SDS011;53428;47.686;16.584;2022-09-29T00:47:50;0.90;;;0.90;;
66575;SDS011;53428;47.686;16.584;2022-09-29T00:52:57;1.23;;;1.13;;
66575;SDS011;53428;47.686;16.584;2022-09-29T00:58:07;2.58;;;1.00;;
66575;SDS011;53428;47.686;16.584;2022-09-29T01:03:15;1.55;;;1.23;;
66575;SDS011;53428;47.686;16.584;2022-09-29T01:08:51;1.35;;;1.13;;
66575;SDS011;53428;47.686;16.584;2022-09-29T01:13:46;1.30;;;0.98;;
66575;SDS011;53428;47.686;16.584;2022-09-29T01:18:47;1.55;;;1.33;;
66575;SDS011;53428;47.686;16.584;2022-09-29T01:39:39;1.00;;;1.00;;
66575;SDS011;53428;47.686;16.584;2022-09-29T01:44:47;5.60;;;1.55;;
66575;SDS011;53428;47.686;16.584;2022-09-29T01:50:05;2.15;;;1.88;;
66575;SDS011;53428;47.686;16.584;2022-09-29T01:55:12;1.65;;;1.35;;
66575;SDS011;53428;47.686;16.584;2022-09-29T02:00:16;1.73;;;1.63;;
66575;SDS011;53428;47.686;16.584;2022-09-29T02:05:22;1.55;;;1.45;;
66575;SDS011;53428;47.686;16.584;2022-09-29T02:10:29;2.90;;;1.70;;
66575;SDS011;53428;47.686;16.584;2022-09-29T02:15:34;3.50;;;1.60;;
66575;SDS011;53428;47.686;16.584;2022-09-29T02:20:37;1.98;;;1.73;;
66575;SDS011;53428;47.686;16.584;2022-09-29T02:25:37;1.88;;;1.38;;
66575;SDS011;53428;47.686;16.584;2022-09-29T02:30:37;2.30;;;1.98;;
66575;SDS011;53428;47.686;16.584;2022-09-29T02:35:45;3.90;;;2.28;;
66575;SDS011;53428;47.686;16.584;2022-09-29T02:41:05;2.05;;;1.83;;
66575;SDS011;53428;47.686;16.584;2022-09-29T02:51:28;4.60;;;1.67;;
66575;SDS011;53428;47.686;16.584;2022-09-29T03:01:59;2.63;;;2.15;;
66575;SDS011;53428;47.686;16.584;2022-09-29T03:06:59;7.03;;;2.08;;
66575;SDS011;53428;47.686;16.584;2022-09-29T03:11:58;3.53;;;2.28;;
66575;SDS011;53428;47.686;16.584;2022-09-29T03:16:57;3.35;;;2.10;;
66575;SDS011;53428;47.686;16.584;2022-09-29T03:21:57;8.05;;;2.33;;
66575;SDS011;53428;47.686;16.584;2022-09-29T03:26:56;5.10;;;2.42;;
66575;SDS011;53428;47.686;16.584;2022-09-29T03:31:57;5.05;;;2.75;;
66575;SDS011;53428;47.686;16.584;2022-09-29T03:36:57;5.13;;;2.35;;
66575;SDS011;53428;47.686;16.584;2022-09-29T03:41:57;2.78;;;2.33;;
66575;SDS011;53428;47.686;16.584;2022-09-29T03:46:56;4.70;;;3.03;;
66575;SDS011;53428;47.686;16.584;2022-09-29T03:56:59;4.82;;;3.00;;
66575;SDS011;53428;47.686;16.584;2022-09-29T04:01:59;6.60;;;3.53;;
66575;SDS011;53428;47.686;16.584;2022-09-29T04:06:58;3.60;;;2.25;;
66575;SDS011;53428;47.686;16.584;2022-09-29T04:11:57;5.13;;;3.00;;
66575;SDS011;53428;47.686;16.584;2022-09-29T04:16:56;5.20;;;2.50;;
66575;SDS011;53428;47.686;16.584;2022-09-29T04:21:56;5.20;;;2.00;;
66575;SDS011;53428;47.686;16.584;2022-09-29T04:26:56;2.90;;;1.90;;
66575;SDS011;53428;47.686;16.584;2022-09-29T04:31:55;3.53;;;2.10;;
66575;SDS011;53428;47.686;16.584;2022-09-29T04:36:55;7.00;;;2.38;;
66575;SDS011;53428;47.686;16.584;2022-09-29T04:41:54;6.97;;;2.85;;
66575;SDS011;53428;47.686;16.584;2022-09-29T04:46:53;3.25;;;2.88;;
66575;SDS011;53428;47.686;16.584;2022-09-29T04:51:53;5.68;;;3.08;;
66575;SDS011;53428;47.686;16.584;2022-09-29T04:56:52;6.32;;;3.30;;
66575;SDS011;53428;47.686;16.584;2022-09-29T05:01:51;5.82;;;3.45;;
66575;SDS011;53428;47.686;16.584;2022-09-29T05:06:51;4.78;;;3.25;;
66575;SDS011;53428;47.686;16.584;2022-09-29T05:11:50;5.65;;;2.97;;
66575;SDS011;53428;47.686;16.584;2022-09-29T05:16:49;5.25;;;2.90;;
66575;SDS011;53428;47.686;16.584;2022-09-29T05:21:49;3.30;;;2.70;;
66575;SDS011;53428;47.686;16.584;2022-09-29T05:26:48;7.88;;;3.55;;
66575;SDS011;53428;47.686;16.584;2022-09-29T05:31:48;4.80;;;3.50;;
66575;SDS011;53428;47.686;16.584;2022-09-29T05:36:47;17.25;;;9.27;;
66575;SDS011;53428;47.686;16.584;2022-09-29T05:41:47;8.75;;;5.28;;
66575;SDS011;53428;47.686;16.584;2022-09-29T05:46:47;3.70;;;3.30;;
66575;SDS011;53428;47.686;16.584;2022-09-29T05:51:46;5.75;;;3.08;;
66575;SDS011;53428;47.686;16.584;2022-09-29T05:56:45;4.00;;;2.75;;
66575;SDS011;53428;47.686;16.584;2022-09-29T06:01:45;3.42;;;3.10;;
66575;SDS011;53428;47.686;16.584;2022-09-29T06:06:44;4.15;;;2.58;;
66575;SDS011;53428;47.686;16.584;2022-09-29T06:11:45;5.35;;;2.30;;
66575;SDS011;53428;47.686;16.584;2022-09-29T06:16:45;3.17;;;1.90;;
66575;SDS011;53428;47.686;16.584;2022-09-29T06:21:44;2.42;;;2.13;;
66575;SDS011;53428;47.686;16.584;2022-09-29T06:26:43;1.60;;;1.50;;
66575;SDS011;53428;47.686;16.584;2022-09-29T06:31:42;2.33;;;1.70;;
66575;SDS011;53428;47.686;16.584;2022-09-29T06:36:42;2.60;;;1.88;;
66575;SDS011;53428;47.686;16.584;2022-09-29T06:42:01;2.70;;;1.23;;
66575;SDS011;53428;47.686;16.584;2022-09-29T06:47:01;2.67;;;2.00;;
66575;SDS011;53428;47.686;16.584;2022-09-29T06:52:00;1.42;;;1.33;;
66575;SDS011;53428;47.686;16.584;2022-09-29T06:56:59;2.17;;;1.02;;
66575;SDS011;53428;47.686;16.584;2022-09-29T07:01:59;2.33;;;1.23;;
66575;SDS011;53428;47.686;16.584;2022-09-29T07:06:58;2.17;;;0.82;;
66575;SDS011;53428;47.686;16.584;2022-09-29T07:11:58;1.75;;;1.33;;
66575;SDS011;53428;47.686;16.584;2022-09-29T07:16:57;1.10;;;1.00;;
66575;SDS011;53428;47.686;16.584;2022-09-29T07:21:57;1.00;;;1.00;;
66575;SDS011;53428;47.686;16.584;2022-09-29T07:26:56;1.35;;;1.15;;
66575;SDS011;53428;47.686;16.584;2022-09-29T07:31:55;1.90;;;1.30;;
66575;SDS011;53428;47.686;16.584;2022-09-29T07:36:55;1.55;;;1.27;;
66575;SDS011;53428;47.686;16.584;2022-09-29T07:41:54;1.70;;;1.35;;
66575;SDS011;53428;47.686;16.584;2022-09-29T07:46:54;1.58;;;1.48;;
66575;SDS011;53428;47.686;16.584;2022-09-29T07:51:54;1.27;;;1.17;;
66575;SDS011;53428;47.686;16.584;2022-09-29T07:56:53;1.45;;;1.35;;
66575;SDS011;53428;47.686;16.584;2022-09-29T08:01:52;3.40;;;1.52;;
66575;SDS011;53428;47.686;16.584;2022-09-29T08:06:52;4.25;;;1.80;;
66575;SDS011;53428;47.686;16.584;2022-09-29T08:11:51;1.88;;;1.70;;
66575;SDS011;53428;47.686;16.584;2022-09-29T08:16:50;4.38;;;2.22;;
66575;SDS011;53428;47.686;16.584;2022-09-29T08:21:50;2.83;;;1.60;;
66575;SDS011;53428;47.686;16.584;2022-09-29T08:26:49;2.08;;;1.95;;
66575;SDS011;53428;47.686;16.584;2022-09-29T08:31:48;4.10;;;2.00;;
66575;SDS011;53428;47.686;16.584;2022-09-29T08:36:49;5.97;;;1.90;;
66575;SDS011;53428;47.686;16.584;2022-09-29T08:41:51;3.58;;;2.25;;
66575;SDS011;53428;47.686;16.584;2022-09-29T08:47:12;4.15;;;2.35;;
66575;SDS011;53428;47.686;16.584;2022-09-29T08:52:22;4.60;;;2.42;;
66575;SDS011;53428;47.686;16.584;2022-09-29T08:57:28;5.90;;;2.83;;
66575;SDS011;53428;47.686;16.584;2022-09-29T09:23:55;8.05;;;2.75;;
66575;SDS011;53428;47.686;16.584;2022-09-29T09:29:02;4.70;;;2.53;;
66575;SDS011;53428;47.686;16.584;2022-09-29T09:34:17;5.43;;;3.28;;
66575;SDS011;53428;47.686;16.584;2022-09-29T09:39:58;3.65;;;2.63;;
66575;SDS011;53428;47.686;16.584;2022-09-29T09:50:23;2.65;;;1.92;;
66575;SDS011;53428;47.686;16.584;2022-09-29T09:55:24;2.50;;;2.03;;
66575;SDS011;53428;47.686;16.584;2022-09-29T10:00:29;1.70;;;1.60;;
66575;SDS011;53428;47.686;16.584;2022-09-29T10:05:45;3.30;;;2.05;;
66575;SDS011;53428;47.686;16.584;2022-09-29T10:10:46;2.13;;;1.90;;
66575;SDS011;53428;47.686;16.584;2022-09-29T10:20:56;3.72;;;2.30;;
66575;SDS011;53428;47.686;16.584;2022-09-29T10:31:17;1.90;;;1.70;;
66575;SDS011;53428;47.686;16.584;2022-09-29T10:36:16;1.70;;;1.60;;
66575;SDS011;53428;47.686;16.584;2022-09-29T10:41:19;2.13;;;1.60;;
66575;SDS011;53428;47.686;16.584;2022-09-29T10:46:35;2.70;;;1.70;;
66575;SDS011;53428;47.686;16.584;2022-09-29T10:51:54;1.23;;;1.13;;
66575;SDS011;53428;47.686;16.584;2022-09-29T10:57:11;1.20;;;1.00;;
66575;SDS011;53428;47.686;16.584;2022-09-29T11:02:16;1.48;;;0.98;;
66575;SDS011;53428;47.686;16.584;2022-09-29T11:07:27;2.38;;;1.40;;
66575;SDS011;53428;47.686;16.584;2022-09-29T11:12:28;2.78;;;1.27;;
66575;SDS011;53428;47.686;16.584;2022-09-29T11:17:35;4.53;;;2.00;;
66575;SDS011;53428;47.686;16.584;2022-09-29T11:28:05;3.15;;;1.25;;
66575;SDS011;53428;47.686;16.584;2022-09-29T11:44:08;2.00;;;1.45;;
66575;SDS011;53428;47.686;16.584;2022-09-29T11:54:33;1.85;;;1.52;;
66575;SDS011;53428;47.686;16.584;2022-09-29T12:00:08;1.58;;;1.30;;
66575;SDS011;53428;47.686;16.584;2022-09-29T12:11:04;4.63;;;1.42;;
66575;SDS011;53428;47.686;16.584;2022-09-29T12:16:10;2.40;;;1.55;;
66575;SDS011;53428;47.686;16.584;2022-09-29T12:21:38;3.33;;;1.60;;
66575;SDS011;53428;47.686;16.584;2022-09-29T12:26:40;2.80;;;1.40;;
66575;SDS011;53428;47.686;16.584;2022-09-29T12:31:43;5.28;;;1.52;;
66575;SDS011;53428;47.686;16.584;2022-09-29T12:36:48;2.50;;;1.00;;
66575;SDS011;53428;47.686;16.584;2022-09-29T12:41:55;1.60;;;1.15;;
66575;SDS011;53428;47.686;16.584;2022-09-29T12:58:05;3.53;;;2.25;;
66575;SDS011;53428;47.686;16.584;2022-09-29T13:08:54;2.70;;;1.70;;
66575;SDS011;53428;47.686;16.584;2022-09-29T13:25:35;3.00;;;1.50;;
66575;SDS011;53428;47.686;16.584;2022-09-29T13:30:36;2.10;;;1.40;;
66575;SDS011;53428;47.686;16.584;2022-09-29T13:35:40;6.65;;;1.88;;
66575;SDS011;53428;47.686;16.584;2022-09-29T13:46:38;5.80;;;4.30;;
66575;SDS011;53428;47.686;16.584;2022-09-29T13:51:40;1.35;;;1.25;;
66575;SDS011;53428;47.686;16.584;2022-09-29T13:56:42;1.63;;;1.10;;
66575;SDS011;53428;47.686;16.584;2022-09-29T14:01:44;1.10;;;0.77;;
66575;SDS011;53428;47.686;16.584;2022-09-29T14:06:45;1.17;;;0.90;;
66575;SDS011;53428;47.686;16.584;2022-09-29T14:11:49;2.60;;;1.42;;
66575;SDS011;53428;47.686;16.584;2022-09-29T14:16:52;4.15;;;1.50;;
66575;SDS011;53428;47.686;16.584;2022-09-29T14:22:02;5.13;;;4.00;;
66575;SDS011;53428;47.686;16.584;2022-09-29T14:32:30;1.98;;;1.05;;
66575;SDS011;53428;47.686;16.584;2022-09-29T14:37:47;3.33;;;1.23;;
66575;SDS011;53428;47.686;16.584;2022-09-29T14:43:12;1.45;;;0.98;;
66575;SDS011;53428;47.686;16.584;2022-09-29T14:48:23;7.95;;;1.60;;
66575;SDS011;53428;47.686;16.584;2022-09-29T14:53:57;3.15;;;2.17;;
66575;SDS011;53428;47.686;16.584;2022-09-29T15:04:36;2.47;;;1.60;;
66575;SDS011;53428;47.686;16.584;2022-09-29T15:09:36;3.80;;;1.42;;
66575;SDS011;53428;47.686;16.584;2022-09-29T15:14:36;4.28;;;2.67;;
66575;SDS011;53428;47.686;16.584;2022-09-29T15:29:54;3.75;;;2.42;;
66575;SDS011;53428;47.686;16.584;2022-09-29T15:35:04;5.40;;;3.63;;
66575;SDS011;53428;47.686;16.584;2022-09-29T15:40:10;5.32;;;3.50;;
66575;SDS011;53428;47.686;16.584;2022-09-29T15:45:17;15.65;;;7.47;;
66575;SDS011;53428;47.686;16.584;2022-09-29T15:50:24;8.90;;;6.65;;
66575;SDS011;53428;47.686;16.584;2022-09-29T15:55:25;6.65;;;4.57;;
66575;SDS011;53428;47.686;16.584;2022-09-29T16:05:24;5.82;;;4.38;;
66575;SDS011;53428;47.686;16.584;2022-09-29T16:10:29;12.75;;;7.53;;
66575;SDS011;53428;47.686;16.584;2022-09-29T16:20:32;9.45;;;5.70;;
66575;SDS011;53428;47.686;16.584;2022-09-29T16:25:33;6.32;;;4.30;;
66575;SDS011;53428;47.686;16.584;2022-09-29T16:30:33;14.05;;;6.75;;
66575;SDS011;53428;47.686;16.584;2022-09-29T16:40:37;6.63;;;4.63;;
66575;SDS011;53428;47.686;16.584;2022-09-29T16:45:38;7.43;;;5.47;;
66575;SDS011;53428;47.686;16.584;2022-09-29T16:50:44;6.25;;;4.05;;
66575;SDS011;53428;47.686;16.584;2022-09-29T16:55:59;10.68;;;7.00;;
66575;SDS011;53428;47.686;16.584;2022-09-29T17:01:01;8.63;;;5.53;;
66575;SDS011;53428;47.686;16.584;2022-09-29T17:06:02;9.55;;;5.00;;
66575;SDS011;53428;47.686;16.584;2022-09-29T17:11:03;10.95;;;5.97;;
66575;SDS011;53428;47.686;16.584;2022-09-29T17:16:03;9.00;;;5.82;;
66575;SDS011;53428;47.686;16.584;2022-09-29T17:21:07;13.02;;;6.80;;
66575;SDS011;53428;47.686;16.584;2022-09-29T17:26:16;8.65;;;6.25;;
66575;SDS011;53428;47.686;16.584;2022-09-29T17:31:46;10.55;;;6.18;;
66575;SDS011;53428;47.686;16.584;2022-09-29T17:36:45;11.27;;;6.03;;
66575;SDS011;53428;47.686;16.584;2022-09-29T17:41:44;12.50;;;6.00;;
66575;SDS011;53428;47.686;16.584;2022-09-29T17:46:47;10.65;;;6.30;;
66575;SDS011;53428;47.686;16.584;2022-09-29T17:51:47;11.98;;;7.00;;
66575;SDS011;53428;47.686;16.584;2022-09-29T17:56:47;9.23;;;6.10;;
66575;SDS011;53428;47.686;16.584;2022-09-29T18:01:46;12.77;;;6.88;;
66575;SDS011;53428;47.686;16.584;2022-09-29T18:06:48;9.90;;;6.13;;
66575;SDS011;53428;47.686;16.584;2022-09-29T18:11:47;8.60;;;5.82;;
66575;SDS011;53428;47.686;16.584;2022-09-29T18:16:46;10.07;;;5.35;;
66575;SDS011;53428;47.686;16.584;2022-09-29T18:21:45;8.40;;;5.28;;
66575;SDS011;53428;47.686;16.584;2022-09-29T18:26:44;6.95;;;4.75;;
66575;SDS011;53428;47.686;16.584;2022-09-29T18:31:44;9.85;;;4.82;;
66575;SDS011;53428;47.686;16.584;2022-09-29T18:36:43;10.15;;;3.92;;
66575;SDS011;53428;47.686;16.584;2022-09-29T18:41:42;9.68;;;5.05;;
66575;SDS011;53428;47.686;16.584;2022-09-29T18:46:42;11.43;;;7.07;;
66575;SDS011;53428;47.686;16.584;2022-09-29T18:51:42;13.93;;;9.30;;
66575;SDS011;53428;47.686;16.584;2022-09-29T18:56:41;13.90;;;8.40;;
66575;SDS011;53428;47.686;16.584;2022-09-29T19:01:42;12.95;;;9.30;;
66575;SDS011;53428;47.686;16.584;2022-09-29T19:06:42;14.50;;;9.40;;
66575;SDS011;53428;47.686;16.584;2022-09-29T19:11:41;13.38;;;8.98;;
66575;SDS011;53428;47.686;16.584;2022-09-29T19:16:41;12.30;;;8.32;;
66575;SDS011;53428;47.686;16.584;2022-09-29T19:21:40;12.82;;;7.45;;
66575;SDS011;53428;47.686;16.584;2022-09-29T19:26:40;18.13;;;9.50;;
66575;SDS011;53428;47.686;16.584;2022-09-29T19:31:39;22.00;;;11.63;;
66575;SDS011;53428;47.686;16.584;2022-09-29T19:36:38;20.27;;;9.73;;
66575;SDS011;53428;47.686;16.584;2022-09-29T19:41:38;14.68;;;8.68;;
66575;SDS011;53428;47.686;16.584;2022-09-29T19:46:37;25.35;;;11.65;;
66575;SDS011;53428;47.686;16.584;2022-09-29T19:51:36;24.90;;;11.45;;
66575;SDS011;53428;47.686;16.584;2022-09-29T19:56:49;15.02;;;8.98;;
66575;SDS011;53428;47.686;16.584;2022-09-29T20:01:50;11.20;;;7.70;;
66575;SDS011;53428;47.686;16.584;2022-09-29T20:06:50;11.10;;;7.28;;
66575;SDS011;53428;47.686;16.584;2022-09-29T20:11:49;11.13;;;7.70;;
66575;SDS011;53428;47.686;16.584;2022-09-29T20:16:50;15.25;;;7.80;;
66575;SDS011;53428;47.686;16.584;2022-09-29T20:21:50;9.52;;;6.65;;
66575;SDS011;53428;47.686;16.584;2022-09-29T20:26:51;6.25;;;4.95;;
66575;SDS011;53428;47.686;16.584;2022-09-29T20:31:53;8.50;;;5.43;;
66575;SDS011;53428;47.686;16.584;2022-09-29T20:36:52;10.35;;;6.72;;
66575;SDS011;53428;47.686;16.584;2022-09-29T20:41:52;10.88;;;5.47;;
66575;SDS011;53428;47.686;16.584;2022-09-29T20:46:52;7.25;;;3.88;;
66575;SDS011;53428;47.686;16.584;2022-09-29T20:51:53;12.93;;;4.90;;
66575;SDS011;53428;47.686;16.584;2022-09-29T20:56:52;5.32;;;3.60;;
66575;SDS011;53428;47.686;16.584;2022-09-29T21:01:52;3.40;;;3.10;;
66575;SDS011;53428;47.686;16.584;2022-09-29T21:06:51;7.88;;;4.35;;
66575;SDS011;53428;47.686;16.584;2022-09-29T21:11:51;4.50;;;3.83;;
66575;SDS011;53428;47.686;16.584;2022-09-29T21:16:51;7.88;;;5.18;;
66575;SDS011;53428;47.686;16.584;2022-09-29T21:21:52;7.85;;;5.47;;
66575;SDS011;53428;47.686;16.584;2022-09-29T21:26:52;8.32;;;5.65;;
66575;SDS011;53428;47.686;16.584;2022-09-29T21:31:51;7.82;;;6.43;;
66575;SDS011;53428;47.686;16.584;2022-09-29T21:36:50;8.38;;;5.65;;
66575;SDS011;53428;47.686;16.584;2022-09-29T21:41:50;9.90;;;6.35;;
66575;SDS011;53428;47.686;16.584;2022-09-29T21:46:49;11.27;;;6.60;;
66575;SDS011;53428;47.686;16.584;2022-09-29T21:51:49;9.57;;;6.07;;
66575;SDS011;53428;47.686;16.584;2022-09-29T21:56:49;10.82;;;5.50;;
66575;SDS011;53428;47.686;16.584;2022-09-29T22:01:48;7.43;;;5.45;;
66575;SDS011;53428;47.686;16.584;2022-09-29T22:06:49;9.00;;;6.38;;
66575;SDS011;53428;47.686;16.584;2022-09-29T22:11:49;10.63;;;6.75;;
66575;SDS011;53428;47.686;16.584;2022-09-29T22:16:48;11.25;;;6.95;;
66575;SDS011;53428;47.686;16.584;2022-09-29T22:21:47;11.32;;;6.65;;
66575;SDS011;53428;47.686;16.584;2022-09-29T22:26:46;17.75;;;10.73;;
66575;SDS011;53428;47.686;16.584;2022-09-29T22:31:46;17.88;;;10.95;;
66575;SDS011;53428;47.686;16.584;2022-09-29T22:36:45;20.90;;;12.30;;
66575;SDS011;53428;47.686;16.584;2022-09-29T22:41:44;32.95;;;18.70;;
66575;SDS011;53428;47.686;16.584;2022-09-29T22:46:44;17.83;;;11.60;;
66575;SDS011;53428;47.686;16.584;2022-09-29T22:51:43;11.82;;;7.80;;
66575;SDS011;53428;47.686;16.584;2022-09-29T22:56:42;13.27;;;6.93;;
66575;SDS011;53428;47.686;16.584;2022-09-29T23:01:41;10.10;;;6.55;;
66575;SDS011;53428;47.686;16.584;2022-09-29T23:06:41;6.57;;;5.30;;
66575;SDS011;53428;47.686;16.584;2022-09-29T23:11:40;6.95;;;4.55;;
66575;SDS011;53428;47.686;16.584;2022-09-29T23:16:39;6.82;;;5.85;;
66575;SDS011;53428;47.686;16.584;2022-09-29T23:21:39;9.18;;;6.28;;
66575;SDS011;53428;47.686;16.584;2022-09-29T23:26:38;7.22;;;5.18;;
66575;SDS011;53428;47.686;16.584;2022-09-29T23:31:37;6.70;;;5.07;;
66575;SDS011;53428;47.686;16.584;2022-09-29T23:36:37;6.93;;;5.00;;
66575;SDS011;53428;47.686;16.584;2022-09-29T23:41:43;7.32;;;4.63;;
66575;SDS011;53428;47.686;16.584;2022-09-29T23:46:48;7.03;;;4.88;;
66575;SDS011;53428;47.686;16.584;2022-09-29T23:51:48;8.45;;;5.03;;
66575;SDS011;53428;47.686;16.584;2022-09-29T23:56:52;6.30;;;4.45;;
